Portada
METAR-TAF:

METAR-TAF

Aeroports :

Wallis, França

latitud: 13-14S, longitud: 176-10W, altitud: 23 m

METAR: manca

Hora: 20:04 (08:04 UTC)

Pronòstic

L'informe es va fer fa 3 hores i 4 minuts, a les 05:00 UTC
Pronòstic vàlid del 18 a les 06 UTC al 19 a les 06 UTC
Vent 6 kt del Sud/Sud-Est
Visibilitat 10 km o més
Núvols disperses a una alçada de 2000 ft
Temporalment
l' 18 a les 06 UTC al 18 a les 09 UTC
Visibilitat: 4000 m
Cel ennuvolat a una alçada de 1400 ft
Escasses núvols a una alçada de 1800 ft, Cumulonimbus.
xàfecs de pluja
Temporalment
l' 18 a les 20 UTC al 18 a les 24 UTC
Visibilitat: 4000 m
Escasses núvols a una alçada de 2000 ft, Cumulonimbus.
xàfecs de pluja

TAF: NLWW 180500Z 1806/1906 15006KT 9999 SCT020 TEMPO 1806/1809 4000 SHRA BKN014 FEW018CB TEMPO 1820/1824 4000 SHRA FEW020CB

Observacions i pronòstics meteorològics de més de 4000 aeroports (METAR i TAF).

Les estacions disponibles són els punts grocs i vermells al mapa.

Posi el ratolí al punt desitjat per veure el nom de l'estació.

Feu clic per veure les observacions i els pronòstics meteorològics.

Per canviar el mapa: feu clic els botons verds amb una creu de color negre per apropar; al botó verd amb un guió per allunyar la imatge; o en les fletxes verdes per a mapes adjacents.


METAR-TAF: